Terminal Aerodrome Forecast
Issued by NWS Charleston, WV

Current Version | Previous Version | Text Only | Print | Product List | Glossary Off
Versions: 1 2 3 4 5 6 7 8 9 10 11 12 13 14 15 16 17 18 19 20 21 22 23 24 25 26 27

000
FTUS41 KRLX 291100
TAFBKW
TAF
KBKW 291128Z 2912/3012 28005KT 4SM BR SCT005 BKN035
      TEMPO 2912/2915 2SM BR HZ BKN005 OVC015
     FM291500 29006KT 6SM BR HZ SCT015 BKN025
     FM291700 31007KT P6SM VCSH SCT040
     FM292200 33006KT P6SM SCT050
     FM300300 00000KT P6SM FEW100=

USA.gov is the U.S. government's official web portal to all federal, state and local government web resources and services.